createdAt,value
2019-04-14T00:02:11.716Z,0.70
2019-04-14T00:15:35.562Z,0.57
2019-04-14T00:24:42.504Z,0.50
2019-04-14T00:27:35.008Z,0.50
2019-04-14T00:30:23.481Z,0.40
2019-04-14T00:33:21.441Z,0.60
2019-04-14T00:36:42.087Z,0.73
2019-04-14T00:39:51.136Z,0.60
2019-04-14T00:53:40.290Z,0.50
2019-04-14T00:56:39.109Z,0.60
2019-04-14T01:02:30.294Z,0.60
2019-04-14T01:09:22.194Z,0.63
2019-04-14T01:12:14.886Z,0.50
2019-04-14T01:15:11.419Z,0.50
2019-04-14T01:18:30.105Z,0.57
2019-04-14T01:24:29.607Z,0.60
2019-04-14T01:27:23.386Z,0.57
2019-04-14T01:33:33.600Z,0.60
2019-04-14T01:36:58.988Z,0.60
2019-04-14T01:43:17.110Z,0.80
2019-04-14T01:46:30.004Z,0.70
2019-04-14T01:49:26.890Z,0.63
2019-04-14T01:52:56.773Z,0.87
2019-04-14T02:16:59.572Z,0.70
2019-04-14T02:23:49.682Z,0.50
2019-04-14T02:26:09.158Z,0.70
2019-04-14T02:28:57.598Z,0.70
2019-04-14T02:45:13.924Z,0.60
2019-04-14T02:48:38.235Z,0.70
2019-04-14T03:12:13.956Z,0.50
2019-04-14T03:15:01.885Z,0.80
2019-04-14T03:29:41.169Z,0.60
2019-04-14T03:33:21.141Z,0.40
2019-04-14T03:36:44.885Z,0.60
2019-04-14T03:46:30.841Z,0.70
2019-04-14T03:58:42.361Z,0.60
2019-04-14T04:01:45.688Z,0.60
2019-04-14T04:04:48.864Z,0.70
2019-04-14T04:08:33.410Z,0.87
2019-04-14T04:10:55.444Z,0.60
2019-04-14T04:21:00.899Z,0.80
2019-04-14T04:24:10.664Z,0.67
2019-04-14T04:37:30.747Z,0.70
2019-04-14T04:40:37.584Z,0.50
2019-04-14T04:43:30.171Z,0.80
2019-04-14T04:46:26.620Z,0.60
2019-04-14T04:52:42.861Z,1.00
2019-04-14T04:59:21.283Z,0.90
2019-04-14T05:02:09.621Z,0.60
2019-04-14T05:05:03.505Z,0.53
2019-04-14T05:12:08.905Z,0.70
2019-04-14T05:15:37.916Z,0.70
2019-04-14T05:18:44.751Z,0.60
2019-04-14T05:21:34.313Z,0.80
2019-04-14T05:24:46.121Z,0.67
2019-04-14T05:27:29.825Z,0.70
2019-04-14T05:36:41.124Z,0.60
2019-04-14T05:39:37.911Z,0.80
2019-04-14T05:45:56.980Z,0.60
2019-04-14T05:51:54.494Z,0.67
2019-04-14T05:54:45.157Z,0.70
2019-04-14T05:57:54.615Z,0.50
2019-04-14T06:01:02.192Z,0.63
2019-04-14T06:03:56.111Z,0.77
2019-04-14T06:06:44.036Z,1.17
2019-04-14T06:12:56.945Z,0.70
2019-04-14T06:18:47.236Z,0.70
2019-04-14T06:28:16.718Z,0.80
2019-04-14T06:31:39.133Z,0.83
2019-04-14T06:34:57.408Z,0.73
2019-04-14T06:38:19.757Z,0.90
2019-04-14T06:41:10.972Z,0.70
2019-04-14T06:44:03.094Z,0.70
2019-04-14T06:46:54.505Z,1.03
2019-04-14T06:49:52.667Z,0.70
2019-04-14T06:56:53.664Z,0.83
2019-04-14T07:06:53.237Z,0.70
2019-04-14T07:09:45.057Z,0.90
2019-04-14T07:12:48.407Z,0.67
2019-04-14T07:15:44.863Z,0.70
2019-04-14T07:22:06.972Z,0.77
2019-04-14T07:28:42.994Z,0.97
2019-04-14T07:35:47.767Z,0.97
2019-04-14T07:39:15.869Z,1.60
2019-04-14T07:42:31.757Z,0.80
2019-04-14T07:48:54.323Z,0.80
2019-04-14T07:52:12.749Z,0.60
2019-04-14T07:58:30.670Z,0.83
2019-04-14T08:05:03.832Z,0.90
2019-04-14T08:15:14.962Z,1.00
2019-04-14T08:18:11.732Z,0.80
2019-04-14T08:20:59.727Z,0.63
2019-04-14T08:23:54.923Z,0.80
2019-04-14T08:36:41.811Z,0.87
2019-04-14T08:39:38.848Z,0.80
2019-04-14T08:42:46.320Z,0.90
2019-04-14T08:46:05.334Z,0.50
2019-04-14T08:49:08.853Z,0.80
2019-04-14T08:59:10.973Z,0.90
2019-04-14T09:05:49.775Z,1.23
2019-04-14T09:18:50.056Z,0.90
2019-04-14T09:21:44.399Z,0.80
2019-04-14T09:24:33.183Z,0.77
2019-04-14T09:27:21.134Z,0.67
2019-04-14T09:39:11.766Z,0.70
2019-04-14T09:41:58.312Z,0.70
2019-04-14T09:45:23.487Z,0.60
2019-04-14T09:51:46.423Z,0.70
2019-04-14T09:54:40.084Z,0.70
2019-04-14T10:08:06.704Z,0.90
2019-04-14T10:10:59.100Z,0.90
2019-04-14T10:13:49.651Z,0.70
2019-04-14T10:16:37.841Z,0.97
2019-04-14T10:19:30.676Z,0.70
2019-04-14T10:22:45.827Z,1.20
2019-04-14T10:25:36.308Z,1.07
2019-04-14T10:28:33.261Z,0.63
2019-04-14T10:35:01.194Z,1.40
2019-04-14T10:37:56.069Z,0.90
2019-04-14T10:41:02.534Z,0.70
2019-04-14T10:43:54.243Z,1.00
2019-04-14T10:46:48.518Z,1.77
2019-04-14T10:49:36.933Z,1.20
2019-04-14T10:56:00.503Z,0.73
2019-04-14T11:04:54.266Z,0.93
2019-04-14T11:10:57.533Z,1.10
2019-04-14T11:14:25.089Z,0.70
2019-04-14T11:20:51.701Z,0.80
2019-04-14T11:23:44.586Z,1.10
2019-04-14T11:26:36.164Z,1.70
2019-04-14T11:29:28.595Z,1.00
2019-04-14T11:32:46.199Z,0.80
2019-04-14T11:36:13.318Z,1.00
2019-04-14T11:39:26.473Z,0.90
2019-04-14T11:50:02.631Z,0.73
2019-04-14T11:53:02.939Z,1.00
2019-04-14T11:59:57.699Z,1.00
2019-04-14T12:06:54.905Z,0.97
2019-04-14T12:13:27.256Z,0.77
2019-04-14T12:16:48.499Z,0.80
2019-04-14T12:19:39.141Z,1.07
2019-04-14T12:22:36.380Z,0.90
2019-04-14T12:25:26.693Z,0.63
2019-04-14T12:28:42.922Z,0.70
2019-04-14T12:31:53.009Z,0.80
2019-04-14T12:34:48.984Z,0.80
2019-04-14T12:58:13.617Z,0.70
2019-04-14T13:01:38.790Z,0.80
2019-04-14T13:04:36.602Z,0.90
2019-04-14T13:07:46.333Z,1.00
2019-04-14T13:10:47.626Z,0.90
2019-04-14T13:13:38.603Z,0.90
2019-04-14T13:17:07.652Z,1.03
2019-04-14T13:20:15.124Z,1.20
2019-04-14T13:23:07.073Z,1.00
2019-04-14T13:26:27.824Z,1.00
2019-04-14T13:32:35.418Z,0.90
2019-04-14T13:35:50.271Z,1.00
2019-04-14T13:38:40.758Z,0.90
2019-04-14T13:44:43.941Z,1.00
2019-04-14T13:47:38.315Z,1.00
2019-04-14T13:50:33.867Z,1.10
2019-04-14T13:56:51.019Z,1.00
2019-04-14T14:03:20.801Z,0.90
2019-04-14T14:06:10.575Z,1.17
2019-04-14T14:09:12.528Z,1.20
2019-04-14T14:12:18.135Z,1.20
2019-04-14T14:15:43.003Z,1.40
2019-04-14T14:18:45.162Z,0.90
2019-04-14T14:21:55.901Z,1.13
2019-04-14T14:25:04.831Z,1.30
2019-04-14T14:27:57.373Z,1.20
2019-04-14T14:30:46.532Z,1.20
2019-04-14T14:33:54.733Z,0.90
2019-04-14T14:36:50.263Z,2.23
2019-04-14T14:40:17.718Z,1.10
2019-04-14T14:43:05.888Z,1.10
2019-04-14T14:46:25.082Z,1.30
2019-04-14T14:56:30.845Z,1.20
2019-04-14T15:06:07.265Z,1.20
2019-04-14T15:08:55.501Z,1.57
2019-04-14T15:11:46.239Z,1.13
2019-04-14T15:14:33.812Z,1.20
2019-04-14T15:17:27.190Z,1.40
2019-04-14T15:20:24.636Z,1.00
2019-04-14T15:23:24.304Z,1.30
2019-04-14T15:26:11.137Z,1.30
2019-04-14T15:29:03.261Z,1.30
2019-04-14T15:31:52.035Z,1.67
2019-04-14T15:34:40.654Z,1.43
2019-04-14T15:37:31.452Z,1.20
2019-04-14T15:40:21.972Z,1.27
2019-04-14T15:43:34.943Z,1.10
2019-04-14T15:46:33.210Z,1.47
2019-04-14T15:50:08.919Z,1.30
2019-04-14T15:53:22.743Z,1.30
2019-04-14T16:04:39.345Z,1.40
2019-04-14T16:07:23.908Z,1.53
2019-04-14T16:10:39.688Z,1.80
2019-04-14T16:13:54.021Z,1.50
2019-04-14T16:27:23.374Z,1.43
2019-04-14T16:34:12.098Z,1.10
2019-04-14T16:37:28.139Z,1.20
2019-04-14T16:40:20.595Z,1.30
2019-04-14T16:43:17.813Z,1.27
2019-04-14T16:46:11.804Z,1.23
2019-04-14T16:49:05.463Z,1.80
2019-04-14T16:52:14.987Z,1.30
2019-04-14T16:55:39.314Z,1.30
2019-04-14T17:05:23.464Z,1.00
2019-04-14T17:08:13.386Z,1.30
2019-04-14T17:11:20.587Z,1.50
2019-04-14T17:14:39.848Z,1.53
2019-04-14T17:17:49.066Z,1.10
2019-04-14T17:31:22.914Z,1.30
2019-04-14T17:34:24.564Z,1.00
2019-04-14T17:40:51.997Z,1.33
2019-04-14T17:44:09.277Z,1.00
2019-04-14T17:47:20.252Z,1.20
2019-04-14T17:50:26.172Z,1.50
2019-04-14T17:53:45.228Z,1.10
2019-04-14T17:56:59.654Z,1.30
2019-04-14T18:00:03.258Z,1.03
2019-04-14T18:03:20.546Z,0.90
2019-04-14T18:06:32.841Z,1.20
2019-04-14T18:09:51.670Z,1.20
2019-04-14T18:13:03.235Z,0.93
2019-04-14T18:16:19.398Z,1.00
2019-04-14T18:19:19.053Z,1.63
2019-04-14T18:22:10.005Z,1.20
2019-04-14T18:28:22.592Z,1.10
2019-04-14T18:32:03.478Z,2.20
2019-04-14T18:45:54.738Z,1.13
2019-04-14T18:49:30.607Z,2.20
2019-04-14T19:03:11.433Z,1.93
2019-04-14T19:06:08.315Z,2.03
2019-04-14T19:08:56.703Z,2.43
2019-04-14T19:12:14.931Z,3.20
2019-04-14T19:25:14.520Z,1.60
2019-04-14T19:28:03.165Z,1.50
2019-04-14T19:30:53.833Z,3.42
2019-04-14T19:33:44.626Z,2.00
2019-04-14T19:36:40.794Z,1.60
2019-04-14T19:39:29.897Z,1.80
2019-04-14T19:42:20.706Z,2.00
2019-04-14T19:58:36.193Z,3.83
2019-04-14T20:01:29.082Z,3.43
2019-04-14T20:04:20.511Z,4.00
2019-04-14T20:07:08.798Z,2.57
2019-04-14T20:13:36.874Z,2.50
2019-04-14T20:17:06.144Z,2.67
2019-04-14T20:20:22.115Z,3.30
2019-04-14T20:23:44.022Z,2.90
2019-04-14T20:30:02.146Z,2.97
2019-04-14T20:32:51.198Z,3.00
2019-04-14T20:35:41.068Z,2.90
2019-04-14T20:38:38.217Z,3.00
2019-04-14T20:41:30.742Z,2.57
2019-04-14T20:45:10.744Z,2.60
2019-04-14T20:51:09.033Z,2.60
2019-04-14T20:54:39.300Z,2.30
2019-04-14T21:00:43.221Z,2.50
2019-04-14T21:04:18.840Z,2.77
2019-04-14T21:07:42.289Z,2.97
2019-04-14T21:11:10.424Z,2.73
2019-04-14T21:21:19.990Z,2.90
2019-04-14T21:24:24.840Z,2.60
2019-04-14T21:27:34.580Z,2.90
2019-04-14T21:31:09.053Z,2.83
2019-04-14T21:34:27.789Z,3.07
2019-04-14T21:38:02.687Z,2.50
2019-04-14T21:48:13.410Z,3.10
2019-04-14T21:51:02.546Z,3.73
2019-04-14T22:01:30.282Z,3.60
2019-04-14T22:08:11.223Z,3.80
2019-04-14T22:15:03.432Z,3.43
2019-04-14T22:18:06.775Z,2.67
2019-04-14T22:21:08.139Z,3.47
2019-04-14T22:24:02.360Z,3.57
2019-04-14T22:30:33.531Z,2.67
2019-04-14T22:33:48.480Z,3.10
2019-04-14T22:36:36.846Z,2.93
2019-04-14T22:39:35.079Z,2.63
2019-04-14T22:42:23.482Z,3.53
2019-04-14T22:45:15.955Z,2.53
2019-04-14T22:48:22.403Z,3.10
2019-04-14T22:51:43.460Z,2.90
2019-04-14T22:54:38.399Z,3.17
2019-04-14T22:57:30.500Z,2.73
2019-04-14T23:00:37.952Z,2.37
2019-04-14T23:03:54.457Z,2.47
2019-04-14T23:07:09.680Z,2.30
2019-04-14T23:10:16.261Z,2.47
2019-04-14T23:13:30.592Z,2.73
2019-04-14T23:16:45.990Z,2.60
2019-04-14T23:19:40.637Z,2.33
2019-04-14T23:22:43.298Z,2.33
2019-04-14T23:25:53.872Z,2.20
2019-04-14T23:32:19.741Z,2.30
2019-04-14T23:38:21.593Z,2.23
2019-04-14T23:41:14.637Z,3.27
2019-04-14T23:44:16.289Z,2.87
2019-04-14T23:47:19.252Z,3.00
2019-04-14T23:53:42.485Z,2.87
2019-04-14T23:56:39.525Z,2.60
2019-04-14T23:59:29.912Z,2.60
